createdAt,value
2018-05-23T00:04:23.851Z,20.80
2018-05-23T00:09:25.370Z,21.10
2018-05-23T00:14:27.636Z,16.00
2018-05-23T00:19:29.404Z,12.27
2018-05-23T00:24:30.933Z,12.17
2018-05-23T00:29:32.465Z,12.00
2018-05-23T00:34:34.709Z,13.13
2018-05-23T00:39:36.208Z,12.73
2018-05-23T00:44:38.463Z,12.90
2018-05-23T00:49:39.971Z,14.90
2018-05-23T00:55:00.002Z,22.47
2018-05-23T01:00:01.539Z,14.07
2018-05-23T01:05:03.881Z,20.20
2018-05-23T01:10:05.447Z,16.40
2018-05-23T01:15:06.939Z,16.67
2018-05-23T01:20:08.455Z,15.57
2018-05-23T01:25:10.098Z,20.87
2018-05-23T01:30:11.617Z,18.53
2018-05-23T01:35:13.106Z,21.77
2018-05-23T01:40:14.602Z,17.47
2018-05-23T01:45:16.851Z,17.23
2018-05-23T01:50:18.367Z,15.40
2018-05-23T01:55:19.903Z,15.73
2018-05-23T02:00:21.429Z,18.73
2018-05-23T02:05:22.949Z,16.07
2018-05-23T02:10:25.345Z,15.30
2018-05-23T02:15:27.598Z,17.13
2018-05-23T02:20:29.151Z,15.23
2018-05-23T02:25:30.682Z,16.23
2018-05-23T02:30:32.169Z,16.47
2018-05-23T02:35:33.663Z,20.33
2018-05-23T02:40:35.179Z,17.70
2018-05-23T02:45:36.696Z,18.60
2018-05-23T02:50:38.303Z,17.30
2018-05-23T02:55:40.571Z,15.47
2018-05-23T03:00:42.073Z,19.10
2018-05-23T03:05:43.853Z,22.53
2018-05-23T03:10:45.412Z,16.50
2018-05-23T03:15:46.951Z,13.80
2018-05-23T03:20:48.467Z,15.37
2018-05-23T03:25:50.006Z,12.70
2018-05-23T03:30:51.520Z,14.63
2018-05-23T03:35:53.062Z,13.63
2018-05-23T03:40:54.545Z,17.97
2018-05-23T03:45:56.236Z,22.40
2018-05-23T03:50:57.764Z,20.43
2018-05-23T03:55:59.252Z,17.07
2018-05-23T04:01:19.404Z,18.83
2018-05-23T04:06:40.340Z,13.07
2018-05-23T04:11:42.590Z,16.70
2018-05-23T04:16:44.140Z,13.63
2018-05-23T04:21:45.699Z,14.97
2018-05-23T04:26:47.195Z,17.00
2018-05-23T04:31:48.733Z,14.70
2018-05-23T04:36:50.238Z,15.43
2018-05-23T04:41:51.750Z,15.70
2018-05-23T04:46:53.439Z,19.80
2018-05-23T04:51:54.968Z,15.70
2018-05-23T04:56:57.231Z,13.80
2018-05-23T05:01:58.724Z,15.10
2018-05-23T05:07:00.925Z,17.07
2018-05-23T05:12:02.582Z,16.70
2018-05-23T05:17:04.217Z,15.43
2018-05-23T05:22:05.717Z,18.93
2018-05-23T05:27:08.014Z,22.70
2018-05-23T05:32:09.538Z,17.63
2018-05-23T05:37:10.988Z,21.60
2018-05-23T05:42:12.473Z,29.37
2018-05-23T05:47:14.079Z,20.73
2018-05-23T05:52:15.617Z,21.20
2018-05-23T05:57:17.127Z,18.70
2018-05-23T06:02:18.670Z,24.20
2018-05-23T06:07:20.922Z,21.00
2018-05-23T06:12:22.432Z,21.33
2018-05-23T06:17:23.991Z,20.10
2018-05-23T06:22:26.301Z,23.27
2018-05-23T06:27:27.933Z,21.87
2018-05-23T06:32:30.231Z,19.50
2018-05-23T06:37:32.501Z,19.50
2018-05-23T06:42:34.060Z,20.43
2018-05-23T06:47:35.549Z,22.27
2018-05-23T06:52:37.806Z,16.97
2018-05-23T06:57:39.393Z,20.60
2018-05-23T07:02:41.679Z,21.73
2018-05-23T07:07:43.972Z,17.40
2018-05-23T07:12:45.496Z,19.37
2018-05-23T07:17:47.088Z,20.73
2018-05-23T07:22:49.294Z,18.40
2018-05-23T07:27:51.547Z,21.60
2018-05-23T07:32:53.053Z,17.97
2018-05-23T07:37:54.615Z,22.97
2018-05-23T07:42:56.983Z,22.50
2018-05-23T07:47:58.508Z,18.83
2018-05-23T07:53:00.040Z,22.90
2018-05-23T07:58:02.332Z,23.50
2018-05-23T08:03:03.864Z,25.77
2018-05-23T08:08:05.330Z,20.07
2018-05-23T08:13:06.895Z,18.47
2018-05-23T08:18:08.432Z,23.10
2018-05-23T08:23:09.930Z,21.00
2018-05-23T08:28:11.413Z,17.37
2018-05-23T08:33:12.935Z,20.03
2018-05-23T08:38:14.434Z,16.87
2018-05-23T08:43:15.939Z,15.37
2018-05-23T08:48:18.141Z,15.20
2018-05-23T08:53:19.668Z,15.90
2018-05-23T08:58:21.907Z,19.20
2018-05-23T09:03:23.450Z,14.03
2018-05-23T09:08:25.709Z,17.03
2018-05-23T09:13:28.044Z,16.20
2018-05-23T09:18:29.506Z,16.63
2018-05-23T09:23:31.062Z,13.80
2018-05-23T09:28:32.584Z,16.03
2018-05-23T09:33:34.055Z,16.07
2018-05-23T09:38:35.573Z,20.33
2018-05-23T09:43:37.196Z,18.13
2018-05-23T09:48:38.686Z,16.77
2018-05-23T09:53:40.182Z,15.23
2018-05-23T09:58:41.770Z,18.00
2018-05-23T10:03:43.386Z,14.43
2018-05-23T10:08:44.874Z,15.57
2018-05-23T10:13:46.472Z,14.97
2018-05-23T10:18:48.100Z,16.37
2018-05-23T10:23:49.629Z,16.60
2018-05-23T10:28:51.146Z,20.83
2018-05-23T10:33:52.733Z,15.70
2018-05-23T10:38:54.325Z,14.37
2018-05-23T10:43:55.935Z,15.57
2018-05-23T10:48:58.232Z,12.03
2018-05-23T10:53:59.832Z,12.23
2018-05-23T10:59:01.387Z,11.70
2018-05-23T11:04:03.010Z,16.30
2018-05-23T11:09:05.415Z,14.13
2018-05-23T11:14:06.943Z,11.57
2018-05-23T11:19:08.475Z,18.40
2018-05-23T11:24:10.257Z,11.93
2018-05-23T11:29:11.880Z,10.97
2018-05-23T11:34:14.631Z,12.47
2018-05-23T11:39:16.267Z,12.00
2018-05-23T11:44:17.792Z,12.50
2018-05-23T11:49:19.329Z,13.07
2018-05-23T11:54:20.864Z,15.20
2018-05-23T11:59:23.167Z,12.90
2018-05-23T12:04:24.681Z,13.53
2018-05-23T12:09:26.189Z,16.87
2018-05-23T12:14:28.740Z,13.73
2018-05-23T12:19:30.373Z,16.57
2018-05-23T12:24:31.841Z,12.73
2018-05-23T12:29:33.385Z,12.87
2018-05-23T12:34:34.948Z,14.93
2018-05-23T12:39:37.264Z,13.73
2018-05-23T12:44:38.824Z,15.13
2018-05-23T12:49:40.496Z,12.43
2018-05-23T12:54:42.019Z,15.07
2018-05-23T12:59:43.565Z,13.03
2018-05-23T13:04:45.157Z,12.07
2018-05-23T13:09:46.728Z,12.63
2018-05-23T13:14:48.301Z,12.73
2018-05-23T13:19:49.802Z,16.83
2018-05-23T13:24:51.320Z,11.43
2018-05-23T13:29:52.776Z,14.40
2018-05-23T13:34:54.310Z,10.67
2018-05-23T13:39:55.857Z,10.80
2018-05-23T13:45:04.983Z,14.13
2018-05-23T13:50:06.718Z,10.17
2018-05-23T13:55:08.272Z,14.33
2018-05-23T14:00:10.470Z,9.43
2018-05-23T14:05:11.985Z,9.43
2018-05-23T14:10:14.338Z,9.50
2018-05-23T14:15:15.924Z,9.57
2018-05-23T14:20:17.464Z,11.20
2018-05-23T14:25:18.963Z,14.80
2018-05-23T14:30:20.456Z,11.23
2018-05-23T14:35:22.755Z,12.67
2018-05-23T14:40:24.276Z,12.73
2018-05-23T14:45:25.740Z,13.03
2018-05-23T14:50:27.302Z,11.10
2018-05-23T14:55:28.896Z,14.77
2018-05-23T15:00:31.214Z,11.63
2018-05-23T15:05:32.768Z,15.00
2018-05-23T15:10:34.404Z,12.00
2018-05-23T15:15:35.953Z,11.97
2018-05-23T15:20:37.451Z,9.73
2018-05-23T15:25:39.699Z,15.90
2018-05-23T15:30:41.380Z,14.67
2018-05-23T15:35:43.774Z,7.70
2018-05-23T15:40:45.414Z,9.70
2018-05-23T15:45:46.985Z,6.67
2018-05-23T15:50:48.585Z,7.93
2018-05-23T15:55:50.131Z,9.30
2018-05-23T16:00:51.693Z,7.07
2018-05-23T16:05:53.323Z,9.43
2018-05-23T16:10:55.556Z,7.53
2018-05-23T16:15:57.134Z,7.97
2018-05-23T16:20:58.684Z,10.47
2018-05-23T16:26:00.206Z,11.10
2018-05-23T16:31:02.601Z,10.53
2018-05-23T16:36:04.883Z,20.93
2018-05-23T16:41:07.236Z,10.53
2018-05-23T16:46:08.763Z,12.97
2018-05-23T16:51:10.316Z,15.37
2018-05-23T16:56:12.618Z,13.03
2018-05-23T17:01:15.110Z,12.37
2018-05-23T17:06:16.641Z,13.10
2018-05-23T17:11:18.245Z,13.03
2018-05-23T17:16:19.801Z,18.20
2018-05-23T17:21:21.346Z,16.53
2018-05-23T17:26:22.890Z,19.03
2018-05-23T17:31:24.420Z,18.23
2018-05-23T17:36:25.945Z,19.73
2018-05-23T17:41:28.494Z,18.20
2018-05-23T17:46:30.069Z,16.97
2018-05-23T17:51:31.635Z,19.97
2018-05-23T17:56:33.238Z,23.43
2018-05-23T18:01:34.886Z,19.67
2018-05-23T18:06:36.696Z,23.03
2018-05-23T18:11:38.450Z,24.90
2018-05-23T18:16:40.961Z,20.00
2018-05-23T18:21:42.492Z,20.10
2018-05-23T18:26:44.059Z,21.10
2018-05-23T18:31:45.595Z,23.00
2018-05-23T18:36:47.171Z,20.00
2018-05-23T18:41:49.273Z,20.40
2018-05-23T18:46:52.629Z,18.50
2018-05-23T18:51:54.875Z,21.57
2018-05-23T18:56:56.404Z,23.07
2018-05-23T19:01:57.936Z,20.93
2018-05-23T19:06:59.615Z,26.33
2018-05-23T19:12:01.939Z,19.83
2018-05-23T19:17:03.503Z,19.90
2018-05-23T19:22:05.070Z,18.30
2018-05-23T19:27:06.611Z,18.60
2018-05-23T19:32:08.953Z,18.63
2018-05-23T19:37:10.560Z,20.70
2018-05-23T19:42:12.536Z,15.67
2018-05-23T19:47:14.099Z,19.37
2018-05-23T19:52:15.636Z,16.67
2018-05-23T19:57:17.194Z,28.60
2018-05-23T20:02:18.768Z,17.20
2018-05-23T20:07:20.354Z,15.53
2018-05-23T20:12:21.942Z,15.23
2018-05-23T20:17:23.560Z,14.23
2018-05-23T20:22:25.099Z,16.10
2018-05-23T20:27:26.938Z,13.60
2018-05-23T20:32:28.442Z,21.43
2018-05-23T20:37:30.791Z,15.90
2018-05-23T20:42:32.335Z,18.20
2018-05-23T20:47:33.956Z,15.33
2018-05-23T20:52:35.505Z,15.27
2018-05-23T20:57:37.196Z,12.53
2018-05-23T21:02:39.037Z,14.30
2018-05-23T21:07:40.624Z,17.17
2018-05-23T21:12:42.166Z,14.07
2018-05-23T21:17:43.723Z,13.60
2018-05-23T21:22:45.421Z,14.07
2018-05-23T21:27:47.212Z,15.50
2018-05-23T21:32:48.639Z,13.90
2018-05-23T21:38:12.968Z,19.23
2018-05-23T21:43:14.661Z,14.83
2018-05-23T21:48:16.345Z,17.10
2018-05-23T21:53:18.598Z,17.60
2018-05-23T21:58:20.259Z,17.27
2018-05-23T22:03:21.865Z,21.10
2018-05-23T22:08:24.568Z,18.10
2018-05-23T22:13:26.901Z,19.80
2018-05-23T22:18:28.531Z,16.00
2018-05-23T22:23:42.224Z,14.77
2018-05-23T22:28:45.875Z,20.93
2018-05-23T22:34:00.467Z,25.00
2018-05-23T22:44:47.679Z,18.03
2018-05-23T22:49:49.536Z,19.17
2018-05-23T22:54:52.035Z,19.70
2018-05-23T22:59:53.712Z,19.40
2018-05-23T23:04:56.083Z,19.07
2018-05-23T23:09:57.876Z,18.63
2018-05-23T23:14:59.627Z,20.23
2018-05-23T23:20:02.144Z,21.07
2018-05-23T23:25:03.908Z,26.00
2018-05-23T23:30:05.386Z,20.83
2018-05-23T23:35:07.136Z,20.30
2018-05-23T23:40:09.442Z,24.50
2018-05-23T23:45:10.968Z,21.00
2018-05-23T23:50:12.668Z,18.90
2018-05-23T23:55:15.167Z,21.33
